Time;durP1;ratioP1;P1;durP2;ratioP2;P2;SDS_P1;SDS_P2;PMS_P1;PMS_P2;Temp;Humidity;BMP_temperature;BMP_pressure;BME280_temperature;BME280_humidity;BME280_pressure;Samples;Min_cycle;Max_cycle;Signal;HPM_P1;HPM_P2
2021/10/13 00:02:11;;;;;;;13.68;9.05;;;;;;;;;;5093448;28;20024;-73
2021/10/13 00:04:37;;;;;;;12.80;8.48;;;;;;;;;;5093474;28;20081;-73
2021/10/13 00:07:04;;;;;;;15.23;9.75;;;;;;;;;;5092818;28;20100;-73
2021/10/13 00:09:30;;;;;;;12.75;8.27;;;;;;;;;;5093390;28;20028;-73
2021/10/13 00:11:56;;;;;;;13.75;9.15;;;;;;;;;;5092065;28;20024;-73
2021/10/13 00:14:22;;;;;;;13.93;8.93;;;;;;;;;;5094738;28;20032;-73
2021/10/13 00:17:02;;;;;;;14.60;9.27;;;;;;;;;;5097630;28;20024;-73
2021/10/13 00:19:28;;;;;;;15.55;9.75;;;;;;;;;;5097605;28;20027;-74
2021/10/13 00:21:55;;;;;;;17.20;9.50;;;;;;;;;;5096961;28;20024;-74
2021/10/13 00:24:21;;;;;;;14.77;8.20;;;;;;;;;;5097855;28;20032;-73
2021/10/13 00:26:47;;;;;;;18.02;9.15;;;;;;;;;;5097353;28;20025;-73
2021/10/13 00:29:13;;;;;;;15.70;8.85;;;;;;;;;;5096023;28;20111;-74
2021/10/13 00:31:40;;;;;;;16.33;8.52;;;;;;;;;;5097257;28;20031;-74
2021/10/13 00:34:06;;;;;;;12.65;8.18;;;;;;;;;;5096820;28;20032;-73
2021/10/13 00:36:32;;;;;;;12.93;8.07;;;;;;;;;;5095801;28;20032;-73
2021/10/13 00:38:58;;;;;;;14.57;8.80;;;;;;;;;;5097240;28;20024;-74
2021/10/13 00:41:24;;;;;;;14.73;8.25;;;;;;;;;;5096649;28;20167;-74
2021/10/13 00:43:51;;;;;;;14.82;7.78;;;;;;;;;;5097010;28;20054;-74
2021/10/13 00:46:17;;;;;;;13.05;8.30;;;;;;;;;;5097055;28;20058;-73
2021/10/13 00:48:43;;;;;;;13.45;8.75;;;;;;;;;;5095263;28;20020;-72
2021/10/13 00:51:09;;;;;;;12.63;7.95;;;;;;;;;;5096868;28;20036;-73
2021/10/13 00:53:36;;;;;;;14.48;8.40;;;;;;;;;;5096740;28;20431;-73
2021/10/13 00:56:02;;;;;;;12.90;8.30;;;;;;;;;;5095093;28;20017;-73
2021/10/13 00:58:28;;;;;;;14.77;8.27;;;;;;;;;;5096954;28;20047;-74
2021/10/13 01:00:56;;;;;;;12.52;8.05;;;;;;;;;;5096895;28;20017;-74
2021/10/13 01:03:42;;;;;;;16.77;8.57;;;;;;;;;;5096350;28;20034;-73
2021/10/13 01:06:14;;;;;;;13.48;8.35;;;;;;;;;;5096663;28;20032;-72
2021/10/13 01:08:40;;;;;;;17.35;9.23;;;;;;;;;;5096810;28;20425;-73
2021/10/13 01:11:06;;;;;;;14.65;9.30;;;;;;;;;;5094795;28;20081;-73
2021/10/13 01:13:48;;;;;;;17.15;10.35;;;;;;;;;;5096378;28;20040;-73
2021/10/13 01:16:28;;;;;;;17.23;9.82;;;;;;;;;;5095957;28;20024;-73
2021/10/13 01:18:56;;;;;;;18.52;10.77;;;;;;;;;;5096769;28;20477;-73
2021/10/13 01:21:34;;;;;;;16.95;10.82;;;;;;;;;;5095255;28;20164;-73
2021/10/13 01:24:19;;;;;;;16.52;10.52;;;;;;;;;;5095974;28;20077;-73
2021/10/13 01:26:51;;;;;;;17.73;11.15;;;;;;;;;;5096140;28;20055;-73
2021/10/13 01:29:19;;;;;;;16.10;10.55;;;;;;;;;;5094829;28;20028;-73
2021/10/13 01:31:47;;;;;;;17.38;10.52;;;;;;;;;;5095674;28;20020;-74
2021/10/13 01:34:15;;;;;;;16.98;11.10;;;;;;;;;;5096046;28;20062;-73
2021/10/13 01:36:45;;;;;;;18.10;10.95;;;;;;;;;;5095982;28;20024;-73
2021/10/13 01:39:12;;;;;;;15.13;9.75;;;;;;;;;;5095553;28;20070;-73
2021/10/13 01:41:39;;;;;;;18.35;10.63;;;;;;;;;;5095875;28;20024;-73
2021/10/13 01:44:09;;;;;;;14.70;9.60;;;;;;;;;;5095810;28;20526;-73
2021/10/13 01:46:36;;;;;;;15.80;9.77;;;;;;;;;;5096003;28;20039;-73
2021/10/13 01:49:03;;;;;;;19.17;10.38;;;;;;;;;;5095782;28;20088;-73
2021/10/13 01:51:30;;;;;;;15.73;10.52;;;;;;;;;;5095295;28;20030;-73
2021/10/13 01:53:58;;;;;;;14.82;10.18;;;;;;;;;;5095451;28;20055;-73
2021/10/13 01:56:25;;;;;;;17.35;10.65;;;;;;;;;;5095697;28;20024;-73
2021/10/13 01:58:53;;;;;;;18.70;11.27;;;;;;;;;;5095164;28;20030;-73
2021/10/13 02:01:20;;;;;;;16.50;9.93;;;;;;;;;;5095534;28;20027;-73
2021/10/13 02:03:47;;;;;;;14.75;9.25;;;;;;;;;;5095683;28;20123;-73
2021/10/13 02:06:15;;;;;;;16.08;10.52;;;;;;;;;;5095156;28;20048;-73
2021/10/13 02:08:42;;;;;;;13.93;9.00;;;;;;;;;;5095320;28;20028;-73
2021/10/13 02:11:09;;;;;;;15.88;9.05;;;;;;;;;;5095423;28;20430;-73
2021/10/13 02:13:36;;;;;;;16.10;9.55;;;;;;;;;;5094757;28;20137;-73
2021/10/13 02:16:03;;;;;;;19.10;9.90;;;;;;;;;;5095570;28;20031;-73
2021/10/13 02:18:30;;;;;;;14.90;9.02;;;;;;;;;;5095136;28;20031;-73
2021/10/13 02:20:57;;;;;;;14.05;8.85;;;;;;;;;;5094702;28;20040;-73
2021/10/13 02:23:25;;;;;;;14.70;9.23;;;;;;;;;;5095044;28;20024;-73
2021/10/13 02:25:53;;;;;;;15.43;9.52;;;;;;;;;;5095156;28;20038;-73
2021/10/13 02:28:26;;;;;;;13.60;8.88;;;;;;;;;;5094577;28;20051;-73
2021/10/13 02:30:53;;;;;;;14.15;9.10;;;;;;;;;;5093700;28;20110;-73
2021/10/13 02:33:19;;;;;;;13.55;8.85;;;;;;;;;;5095352;28;20035;-73
2021/10/13 02:35:45;;;;;;;13.82;8.80;;;;;;;;;;5092976;28;20111;-73
2021/10/13 02:38:11;;;;;;;13.43;8.95;;;;;;;;;;5094166;28;20426;-73
2021/10/13 02:40:38;;;;;;;15.77;9.75;;;;;;;;;;5094426;28;20020;-73
2021/10/13 02:43:05;;;;;;;13.82;9.20;;;;;;;;;;5094770;28;20035;-73
2021/10/13 02:45:34;;;;;;;14.30;8.93;;;;;;;;;;5094947;28;20371;-73
2021/10/13 02:48:02;;;;;;;18.23;9.75;;;;;;;;;;5094255;28;20016;-73
2021/10/13 02:50:35;;;;;;;14.18;9.50;;;;;;;;;;5094509;28;20029;-73
2021/10/13 02:53:06;;;;;;;16.95;9.90;;;;;;;;;;5093131;28;20499;-73
2021/10/13 02:55:35;;;;;;;15.38;10.65;;;;;;;;;;5094084;28;20028;-73
2021/10/13 02:58:01;;;;;;;16.98;10.75;;;;;;;;;;5093135;28;20024;-73
2021/10/13 03:00:29;;;;;;;16.88;10.32;;;;;;;;;;5094592;28;20103;-73
2021/10/13 03:03:00;;;;;;;17.55;11.65;;;;;;;;;;5094004;28;20483;-73
2021/10/13 03:05:27;;;;;;;18.55;11.45;;;;;;;;;;5094373;28;20036;-73
2021/10/13 03:07:56;;;;;;;15.90;10.52;;;;;;;;;;5093001;28;20016;-73
2021/10/13 03:10:22;;;;;;;17.50;10.60;;;;;;;;;;5093927;28;20028;-74
2021/10/13 03:12:51;;;;;;;16.13;11.05;;;;;;;;;;5094046;28;20391;-74
2021/10/13 03:15:17;;;;;;;17.40;11.20;;;;;;;;;;5094379;28;20043;-73
2021/10/13 03:17:46;;;;;;;15.93;9.60;;;;;;;;;;5093686;28;20028;-73
2021/10/13 03:20:13;;;;;;;18.25;10.43;;;;;;;;;;5094039;28;20103;-73
2021/10/13 03:22:40;;;;;;;17.35;10.68;;;;;;;;;;5093822;28;20091;-73
2021/10/13 03:25:06;;;;;;;19.55;10.90;;;;;;;;;;5093966;28;20024;-73
2021/10/13 03:27:33;;;;;;;18.77;11.43;;;;;;;;;;5093923;28;20024;-73
2021/10/13 03:29:59;;;;;;;19.55;11.73;;;;;;;;;;5093528;28;20494;-73
2021/10/13 03:32:25;;;;;;;18.17;11.30;;;;;;;;;;5093922;28;20127;-73
2021/10/13 03:34:51;;;;;;;17.90;10.55;;;;;;;;;;5093781;28;20479;-74
2021/10/13 03:37:18;;;;;;;17.35;10.80;;;;;;;;;;5093572;28;20093;-74
2021/10/13 03:39:48;;;;;;;19.17;10.52;;;;;;;;;;5094041;28;20024;-74
2021/10/13 03:42:14;;;;;;;15.95;10.43;;;;;;;;;;5092490;28;20046;-74
2021/10/13 03:44:40;;;;;;;16.58;10.25;;;;;;;;;;5093470;28;20024;-76
2021/10/13 03:47:07;;;;;;;16.33;10.25;;;;;;;;;;5094228;28;20024;-73
2021/10/13 03:49:34;;;;;;;16.13;10.13;;;;;;;;;;5092199;28;20032;-73
2021/10/13 03:52:00;;;;;;;21.00;10.88;;;;;;;;;;5092928;28;20038;-73
2021/10/13 03:54:26;;;;;;;28.95;17.73;;;;;;;;;;5093626;28;20031;-73
2021/10/13 03:56:52;;;;;;;18.50;12.68;;;;;;;;;;5093559;28;20051;-73
2021/10/13 03:59:18;;;;;;;17.67;10.80;;;;;;;;;;5093213;28;20024;-73
2021/10/13 04:01:45;;;;;;;19.65;12.20;;;;;;;;;;5093466;28;20032;-74
2021/10/13 04:04:11;;;;;;;14.27;9.50;;;;;;;;;;5093468;28;20479;-73
2021/10/13 04:06:38;;;;;;;20.48;11.85;;;;;;;;;;5093090;28;20056;-73
2021/10/13 04:09:05;;;;;;;18.45;10.63;;;;;;;;;;5093441;28;20403;-74
2021/10/13 04:11:32;;;;;;;18.55;11.65;;;;;;;;;;5093391;28;20028;-74
2021/10/13 04:13:58;;;;;;;24.48;14.80;;;;;;;;;;5092934;28;20484;-74
2021/10/13 04:16:24;;;;;;;26.20;15.70;;;;;;;;;;5093378;28;20431;-73
2021/10/13 04:18:50;;;;;;;24.92;14.70;;;;;;;;;;5093398;28;20103;-73
2021/10/13 04:21:16;;;;;;;22.67;14.18;;;;;;;;;;5093584;28;20021;-73
2021/10/13 04:23:42;;;;;;;21.80;13.77;;;;;;;;;;5093422;28;20044;-73
2021/10/13 04:26:09;;;;;;;22.13;13.45;;;;;;;;;;5091606;28;20077;-73
2021/10/13 04:28:35;;;;;;;18.60;12.13;;;;;;;;;;5093266;28;20040;-74
2021/10/13 04:31:01;;;;;;;16.88;10.30;;;;;;;;;;5093450;28;20032;-74
2021/10/13 04:33:27;;;;;;;17.98;10.82;;;;;;;;;;5098295;28;20028;-74
2021/10/13 04:35:53;;;;;;;18.25;11.75;;;;;;;;;;5104370;28;20020;-73
2021/10/13 04:38:19;;;;;;;20.95;12.82;;;;;;;;;;5100536;28;20028;-74
2021/10/13 04:40:46;;;;;;;19.88;12.15;;;;;;;;;;5092814;28;20028;-73
2021/10/13 04:43:12;;;;;;;18.65;11.50;;;;;;;;;;5093186;28;20089;-74
2021/10/13 04:45:38;;;;;;;16.73;11.20;;;;;;;;;;5093144;28;20020;-74
2021/10/13 04:48:04;;;;;;;17.02;11.57;;;;;;;;;;5092665;28;20044;-73
2021/10/13 04:50:30;;;;;;;24.27;14.52;;;;;;;;;;5093103;28;20464;-74
2021/10/13 04:52:57;;;;;;;21.65;13.93;;;;;;;;;;5092778;28;20052;-74
2021/10/13 04:55:23;;;;;;;20.70;12.98;;;;;;;;;;5096301;28;20024;-74
2021/10/13 04:57:49;;;;;;;25.42;15.00;;;;;;;;;;5101319;28;20031;-74
2021/10/13 05:00:15;;;;;;;23.17;14.23;;;;;;;;;;5098123;28;20021;-74
2021/10/13 05:02:42;;;;;;;27.15;15.68;;;;;;;;;;5096333;28;20107;-75
2021/10/13 05:05:08;;;;;;;25.05;15.15;;;;;;;;;;5096591;28;20548;-73
2021/10/13 05:07:34;;;;;;;24.13;15.13;;;;;;;;;;5096560;28;20503;-73
2021/10/13 05:10:00;;;;;;;24.88;15.60;;;;;;;;;;5094544;28;20020;-73
2021/10/13 05:12:27;;;;;;;23.63;15.25;;;;;;;;;;5095688;28;20106;-75
2021/10/13 05:14:53;;;;;;;21.17;14.63;;;;;;;;;;5095731;28;20032;-75
2021/10/13 05:17:19;;;;;;;20.42;13.23;;;;;;;;;;5094139;28;20403;-74
2021/10/13 05:19:45;;;;;;;25.50;14.45;;;;;;;;;;5096013;28;20032;-73
2021/10/13 05:22:11;;;;;;;21.95;15.30;;;;;;;;;;5090933;28;20042;-75
2021/10/13 05:24:38;;;;;;;21.25;14.05;;;;;;;;;;5071381;28;20445;-73
2021/10/13 05:27:04;;;;;;;23.95;15.32;;;;;;;;;;5081163;28;20024;-72
2021/10/13 05:29:30;;;;;;;21.60;14.50;;;;;;;;;;5092286;28;20055;-72
2021/10/13 05:31:56;;;;;;;21.63;13.77;;;;;;;;;;5093292;28;20361;-71
2021/10/13 05:34:23;;;;;;;23.50;14.40;;;;;;;;;;5095474;28;20040;-71
2021/10/13 05:36:49;;;;;;;21.30;12.60;;;;;;;;;;5095407;28;20054;-70
2021/10/13 05:39:15;;;;;;;18.98;11.00;;;;;;;;;;5095546;28;20079;-70
2021/10/13 05:41:41;;;;;;;19.48;11.07;;;;;;;;;;5094298;28;20028;-70
2021/10/13 05:44:07;;;;;;;18.50;12.18;;;;;;;;;;5095068;28;20028;-70
2021/10/13 05:46:34;;;;;;;19.25;12.40;;;;;;;;;;5094038;28;20028;-69
2021/10/13 05:49:00;;;;;;;23.95;15.02;;;;;;;;;;5095505;28;20081;-71
2021/10/13 05:51:26;;;;;;;25.48;15.40;;;;;;;;;;5095207;28;20041;-71
2021/10/13 05:53:52;;;;;;;22.88;13.95;;;;;;;;;;5093759;28;20044;-73
2021/10/13 05:56:19;;;;;;;21.65;13.35;;;;;;;;;;5095332;28;20134;-71
2021/10/13 05:58:47;;;;;;;23.33;11.80;;;;;;;;;;5094826;28;20024;-71
2021/10/13 06:01:18;;;;;;;14.95;10.38;;;;;;;;;;5091945;28;20012;-73
2021/10/13 06:03:44;;;;;;;19.10;11.35;;;;;;;;;;5085991;28;20042;-71
2021/10/13 06:06:10;;;;;;;19.13;11.52;;;;;;;;;;5093332;28;20491;-72
2021/10/13 06:08:37;;;;;;;16.48;10.45;;;;;;;;;;5089461;28;20468;-73
2021/10/13 06:11:03;;;;;;;19.02;11.82;;;;;;;;;;5093726;28;20028;-71
2021/10/13 06:13:29;;;;;;;16.52;9.57;;;;;;;;;;5092601;28;20110;-73
2021/10/13 06:15:55;;;;;;;18.08;9.80;;;;;;;;;;5091100;28;20020;-73
2021/10/13 06:18:21;;;;;;;15.05;10.32;;;;;;;;;;5093276;28;20032;-73
2021/10/13 06:20:47;;;;;;;15.00;9.73;;;;;;;;;;5092927;28;20020;-73
2021/10/13 06:23:14;;;;;;;15.27;10.43;;;;;;;;;;5094485;28;20020;-74
2021/10/13 06:25:40;;;;;;;16.58;10.60;;;;;;;;;;5093577;28;20027;-74
2021/10/13 06:28:06;;;;;;;18.60;10.10;;;;;;;;;;5093911;28;20027;-74
2021/10/13 06:30:37;;;;;;;16.33;10.43;;;;;;;;;;5094334;28;20410;-74
2021/10/13 06:33:03;;;;;;;27.08;11.45;;;;;;;;;;5093722;28;20499;-74
2021/10/13 06:35:29;;;;;;;16.25;9.68;;;;;;;;;;5092844;28;20032;-71
2021/10/13 06:37:56;;;;;;;13.82;8.60;;;;;;;;;;5094105;28;20052;-72
2021/10/13 06:40:22;;;;;;;16.70;10.73;;;;;;;;;;5093822;28;20043;-73
2021/10/13 06:42:48;;;;;;;16.17;10.40;;;;;;;;;;5094285;28;20028;-71
2021/10/13 06:45:15;;;;;;;15.82;9.93;;;;;;;;;;5093940;28;20012;-72
2021/10/13 06:47:41;;;;;;;14.70;10.75;;;;;;;;;;5093500;28;20035;-74
2021/10/13 06:50:08;;;;;;;17.90;10.63;;;;;;;;;;5093642;28;20016;-71
2021/10/13 06:52:34;;;;;;;19.52;12.63;;;;;;;;;;5093139;28;20048;-71
2021/10/13 06:55:00;;;;;;;21.80;13.32;;;;;;;;;;5092854;28;20024;-72
2021/10/13 06:57:27;;;;;;;22.20;11.55;;;;;;;;;;5093041;28;20035;-73
2021/10/13 06:59:53;;;;;;;17.13;9.95;;;;;;;;;;5093823;28;20375;-73
2021/10/13 07:02:19;;;;;;;17.45;10.43;;;;;;;;;;5091531;28;20020;-73
2021/10/13 07:04:45;;;;;;;15.73;10.68;;;;;;;;;;5093526;28;20035;-73
2021/10/13 07:07:11;;;;;;;23.27;11.88;;;;;;;;;;5087631;28;20077;-73
2021/10/13 07:09:37;;;;;;;15.93;10.30;;;;;;;;;;5091712;28;20028;-72
2021/10/13 07:13:19;;;;;;;15.85;10.38;;;;;;;;;;5108886;27;20456;-71
2021/10/13 07:15:45;;;;;;;19.60;10.23;;;;;;;;;;5109847;28;20465;-72
2021/10/13 07:18:11;;;;;;;20.17;10.00;;;;;;;;;;5110292;28;20097;-72
2021/10/13 07:20:38;;;;;;;14.75;9.15;;;;;;;;;;5110153;28;20023;-71
2021/10/13 07:23:36;;;;;;;15.75;9.77;;;;;;;;;;5112305;27;20392;-74
2021/10/13 07:26:02;;;;;;;16.88;10.38;;;;;;;;;;5104743;28;20095;-72
2021/10/13 07:28:30;;;;;;;14.88;9.25;;;;;;;;;;5096731;28;20073;-71
2021/10/13 07:30:56;;;;;;;16.20;10.18;;;;;;;;;;5105726;28;20019;-71
2021/10/13 07:33:22;;;;;;;17.05;11.07;;;;;;;;;;5106910;28;20020;-71
2021/10/13 07:37:42;;;;;;;18.45;11.77;;;;;;;;;;5108781;27;20501;-71
2021/10/13 07:43:25;;;;;;;14.90;10.85;;;;;;;;;;5108082;27;20407;-73
2021/10/13 07:45:52;;;;;;;14.93;9.77;;;;;;;;;;5109110;28;20028;-73
2021/10/13 07:48:18;;;;;;;16.25;11.27;;;;;;;;;;5108279;28;20043;-72
2021/10/13 07:50:44;;;;;;;16.75;9.82;;;;;;;;;;5108818;28;20035;-74
2021/10/13 07:53:10;;;;;;;13.52;9.52;;;;;;;;;;5107890;28;20077;-71
2021/10/13 07:55:36;;;;;;;15.27;9.25;;;;;;;;;;5109703;28;20020;-72
2021/10/13 07:59:24;;;;;;;14.98;8.85;;;;;;;;;;5108947;27;20415;-74
2021/10/13 08:01:51;;;;;;;16.35;10.13;;;;;;;;;;5104521;28;20051;-72
2021/10/13 08:04:17;;;;;;;17.05;11.05;;;;;;;;;;5104943;28;20499;-66
2021/10/13 08:06:44;;;;;;;16.42;9.30;;;;;;;;;;5089789;28;20021;-66
2021/10/13 08:10:07;;;;;;;16.73;11.25;;;;;;;;;;5163389;27;20117;-66
2021/10/13 08:13:29;;;;;;;17.00;10.57;;;;;;;;;;5109006;27;20536;-66
2021/10/13 08:18:11;;;;;;;15.63;9.05;;;;;;;;;;5162956;27;20666;-66
2021/10/13 08:20:37;;;;;;;26.95;10.80;;;;;;;;;;5150167;27;20526;-66
2021/10/13 08:23:03;;;;;;;16.25;9.57;;;;;;;;;;5133145;27;20050;-66
2021/10/13 08:25:29;;;;;;;14.95;8.73;;;;;;;;;;5150455;27;20030;-66
2021/10/13 08:29:52;;;;;;;15.43;9.05;;;;;;;;;;5109889;27;20396;-66
2021/10/13 08:32:18;;;;;;;13.02;8.93;;;;;;;;;;5125658;28;20036;-65
2021/10/13 08:35:31;;;;;;;13.25;8.60;;;;;;;;;;5109197;27;20388;-71
2021/10/13 08:37:57;;;;;;;17.65;8.70;;;;;;;;;;5108697;28;20034;-72
2021/10/13 08:40:50;;;;;;;13.38;8.75;;;;;;;;;;5110349;27;20384;-71
2021/10/13 08:43:16;;;;;;;13.23;8.48;;;;;;;;;;5110030;28;20058;-71
2021/10/13 08:45:42;;;;;;;11.70;8.05;;;;;;;;;;5108450;28;20024;-72
2021/10/13 08:48:08;;;;;;;10.82;7.72;;;;;;;;;;5108203;28;20020;-71
2021/10/13 08:51:00;;;;;;;11.93;7.88;;;;;;;;;;5108353;27;20988;-72
2021/10/13 08:53:27;;;;;;;13.82;9.55;;;;;;;;;;5107145;28;20788;-72
2021/10/13 08:56:51;;;;;;;14.35;9.13;;;;;;;;;;5108382;27;20445;-71
2021/10/13 09:01:09;;;;;;;14.70;9.88;;;;;;;;;;5065940;28;21008;-72
2021/10/13 09:06:21;;;;;;;15.63;10.38;;;;;;;;;;5103090;27;20500;-72
2021/10/13 09:08:56;;;;;;;14.90;9.63;;;;;;;;;;5104279;28;20030;-71
2021/10/13 09:11:42;;;;;;;14.30;9.50;;;;;;;;;;5106934;28;20023;-71
2021/10/13 09:18:59;;;;;;;12.80;8.68;;;;;;;;;;5099091;27;20518;-72
2021/10/13 09:21:44;;;;;;;15.40;10.55;;;;;;;;;;5092490;28;20057;-71
2021/10/13 09:24:11;;;;;;;11.70;7.80;;;;;;;;;;5105397;28;20546;-73
2021/10/13 09:26:37;;;;;;;11.77;7.70;;;;;;;;;;5103120;28;20032;-72
2021/10/13 09:31:22;;;;;;;14.65;9.20;;;;;;;;;;5108029;27;20463;-73
2021/10/13 09:34:00;;;;;;;13.95;8.68;;;;;;;;;;5109022;28;20491;-73
2021/10/13 09:36:36;;;;;;;13.27;8.05;;;;;;;;;;5102676;28;20547;-74
2021/10/13 09:39:10;;;;;;;11.15;7.45;;;;;;;;;;5086875;28;20035;-74
2021/10/13 09:41:55;;;;;;;15.18;9.07;;;;;;;;;;5086063;28;20098;-76
2021/10/13 09:45:12;;;;;;;19.55;10.40;;;;;;;;;;5129793;27;20334;-72
2021/10/13 09:47:39;;;;;;;19.13;12.68;;;;;;;;;;5109584;28;20032;-73
2021/10/13 09:50:09;;;;;;;14.73;8.48;;;;;;;;;;5104157;28;20043;-71
2021/10/13 09:52:36;;;;;;;13.35;7.32;;;;;;;;;;5098008;28;20027;-72
2021/10/13 09:55:09;;;;;;;13.50;8.70;;;;;;;;;;5089036;28;20050;-72
2021/10/13 09:57:55;;;;;;;14.80;8.73;;;;;;;;;;5089722;28;20044;-72
2021/10/13 10:00:22;;;;;;;12.02;7.63;;;;;;;;;;5093510;28;20061;-72
2021/10/13 10:02:56;;;;;;;13.77;8.10;;;;;;;;;;5109048;28;20032;-72
2021/10/13 10:05:29;;;;;;;18.15;7.63;;;;;;;;;;5110009;28;20024;-72
2021/10/13 10:11:07;;;;;;;19.10;9.43;;;;;;;;;;5109758;27;20424;-71
2021/10/13 10:13:34;;;;;;;14.02;9.32;;;;;;;;;;5107874;28;20838;-72
2021/10/13 10:16:00;;;;;;;11.90;7.82;;;;;;;;;;5105251;28;20039;-73
2021/10/13 10:20:35;;;;;;;11.88;7.47;;;;;;;;;;5065638;28;21178;-73
2021/10/13 10:23:01;;;;;;;19.05;10.30;;;;;;;;;;5065127;28;20040;-74
2021/10/13 10:25:37;;;;;;;16.15;10.73;;;;;;;;;;5067811;28;20027;-73
2021/10/13 10:28:47;;;;;;;13.63;8.30;;;;;;;;;;5068373;28;20422;-73
2021/10/13 10:31:29;;;;;;;11.77;6.93;;;;;;;;;;5067479;28;20033;-73
2021/10/13 10:34:21;;;;;;;12.57;8.35;;;;;;;;;;5065752;28;20147;-73
2021/10/13 10:37:47;;;;;;;16.15;8.30;;;;;;;;;;5106117;27;20393;-73
2021/10/13 10:41:38;;;;;;;15.70;9.82;;;;;;;;;;5108359;27;20749;-74
2021/10/13 10:44:23;;;;;;;15.65;6.80;;;;;;;;;;5123627;28;20529;-73
2021/10/13 10:46:59;;;;;;;12.43;7.68;;;;;;;;;;5107372;28;20459;-77
2021/10/13 10:49:46;;;;;;;12.48;7.72;;;;;;;;;;5107575;28;20034;-73
2021/10/13 10:52:21;;;;;;;18.67;9.57;;;;;;;;;;5109823;28;20034;-73
2021/10/13 10:55:38;;;;;;;16.10;7.95;;;;;;;;;;5130406;27;20115;-74
2021/10/13 11:02:06;;;;;;;14.52;8.43;;;;;;;;;;5108160;27;20388;-71
2021/10/13 11:04:32;;;;;;;16.20;9.23;;;;;;;;;;5108400;28;20491;-70
2021/10/13 11:07:01;;;;;;;16.60;9.45;;;;;;;;;;5103311;28;20049;-71
2021/10/13 11:09:27;;;;;;;16.02;10.05;;;;;;;;;;5108110;28;20028;-70
2021/10/13 11:13:57;;;;;;;12.30;8.48;;;;;;;;;;5109466;27;20668;-70
2021/10/13 11:19:31;;;;;;;14.63;8.13;;;;;;;;;;5069231;28;20423;-69
2021/10/13 11:22:03;;;;;;;13.55;7.55;;;;;;;;;;5069453;28;20025;-70
2021/10/13 11:26:46;;;;;;;17.27;7.28;;;;;;;;;;5069279;28;20419;-71
2021/10/13 11:29:17;;;;;;;10.45;6.95;;;;;;;;;;5066766;28;20035;-70
2021/10/13 11:31:43;;;;;;;14.57;7.53;;;;;;;;;;5069544;28;20135;-69
2021/10/13 11:34:09;;;;;;;14.27;6.70;;;;;;;;;;5069595;28;20021;-70
2021/10/13 11:39:30;;;;;;;16.75;7.80;;;;;;;;;;5088148;28;20322;-70
2021/10/13 11:41:57;;;;;;;26.58;13.77;;;;;;;;;;5089801;28;20077;-71
2021/10/13 11:45:57;;;;;;;16.92;8.60;;;;;;;;;;5109986;27;20385;-71
2021/10/13 11:52:27;;;;;;;17.63;9.93;;;;;;;;;;5109348;27;20408;-73
2021/10/13 11:56:58;;;;;;;15.60;9.80;;;;;;;;;;5108833;27;20446;-72
2021/10/13 12:03:02;;;;;;;15.48;8.98;;;;;;;;;;5110167;27;20912;-73
2021/10/13 12:05:30;;;;;;;15.25;8.43;;;;;;;;;;5108092;28;20036;-71
2021/10/13 12:08:25;;;;;;;13.88;8.10;;;;;;;;;;5109543;28;20027;-71
2021/10/13 12:12:17;;;;;;;16.05;9.20;;;;;;;;;;5108777;27;20416;-70
2021/10/13 12:16:33;;;;;;;17.95;11.57;;;;;;;;;;5110142;27;20413;-69
2021/10/13 12:18:59;;;;;;;15.38;9.20;;;;;;;;;;5108848;28;20043;-71
2021/10/13 12:21:29;;;;;;;15.77;9.52;;;;;;;;;;5109396;28;20047;-70
2021/10/13 12:24:03;;;;;;;15.75;9.07;;;;;;;;;;5110531;28;20383;-69
2021/10/13 12:28:02;;;;;;;15.32;8.88;;;;;;;;;;5109512;27;20402;-70
2021/10/13 12:30:35;;;;;;;15.93;10.05;;;;;;;;;;5091793;28;20085;-69
2021/10/13 12:33:03;;;;;;;14.60;9.73;;;;;;;;;;5088833;28;20479;-68
2021/10/13 12:36:54;;;;;;;15.57;10.05;;;;;;;;;;5123676;27;20309;-69
2021/10/13 12:39:52;;;;;;;14.23;7.63;;;;;;;;;;5110534;27;20814;-71
2021/10/13 12:42:23;;;;;;;12.90;7.47;;;;;;;;;;5101454;28;20059;-72
2021/10/13 12:47:42;;;;;;;15.40;10.10;;;;;;;;;;5069799;28;20521;-68
2021/10/13 12:50:12;;;;;;;17.70;9.38;;;;;;;;;;5069909;28;20036;-71
2021/10/13 12:54:50;;;;;;;14.05;9.55;;;;;;;;;;5112167;27;21000;-78
2021/10/13 12:57:18;;;;;;;13.98;8.68;;;;;;;;;;5109052;28;20111;-74
2021/10/13 13:02:10;;;;;;;11.55;7.47;;;;;;;;;;5068783;28;21017;-76
2021/10/13 13:04:36;;;;;;;14.55;8.25;;;;;;;;;;5069401;28;20040;-77
2021/10/13 13:07:05;;;;;;;11.38;7.93;;;;;;;;;;5069556;28;20029;-76
2021/10/13 13:10:36;;;;;;;13.32;8.25;;;;;;;;;;5108406;27;20438;-74
2021/10/13 13:17:52;;;;;;;12.48;8.15;;;;;;;;;;5109264;27;20536;-74
2021/10/13 13:21:54;;;;;;;12.65;7.95;;;;;;;;;;5108655;27;20123;-74
2021/10/13 13:26:16;;;;;;;14.63;9.30;;;;;;;;;;5109025;27;20509;-74
2021/10/13 13:31:26;;;;;;;15.02;10.13;;;;;;;;;;5068844;28;20996;-75
2021/10/13 13:35:57;;;;;;;17.50;10.68;;;;;;;;;;5170959;27;20310;-74
2021/10/13 13:38:23;;;;;;;18.15;13.02;;;;;;;;;;5151290;27;20102;-73
2021/10/13 13:43:26;;;;;;;20.48;12.15;;;;;;;;;;5110706;27;20396;-76
2021/10/13 13:45:52;;;;;;;15.23;9.50;;;;;;;;;;5111386;28;20024;-75
2021/10/13 13:48:20;;;;;;;18.30;11.45;;;;;;;;;;5127216;28;20034;-75
2021/10/13 13:50:47;;;;;;;19.73;12.48;;;;;;;;;;5110786;28;20501;-76
2021/10/13 13:56:45;;;;;;;16.83;12.27;;;;;;;;;;5111463;27;20440;-74
2021/10/13 13:59:11;;;;;;;16.73;11.18;;;;;;;;;;5110734;28;20020;-74
2021/10/13 14:01:38;;;;;;;16.65;11.00;;;;;;;;;;5110775;28;20144;-74
2021/10/13 14:04:04;;;;;;;18.73;11.48;;;;;;;;;;5110934;28;20507;-74
2021/10/13 14:06:30;;;;;;;21.50;13.90;;;;;;;;;;5111349;28;20434;-75
2021/10/13 14:08:57;;;;;;;19.00;12.68;;;;;;;;;;5109907;28;20028;-75
2021/10/13 14:13:16;;;;;;;23.88;12.07;;;;;;;;;;5111427;27;20428;-74
2021/10/13 14:15:42;;;;;;;21.10;14.05;;;;;;;;;;5111130;28;20028;-74
2021/10/13 14:18:08;;;;;;;24.77;14.57;;;;;;;;;;5111031;28;20044;-74
2021/10/13 14:20:35;;;;;;;25.75;15.80;;;;;;;;;;5109950;28;20027;-76
2021/10/13 14:23:01;;;;;;;26.40;16.50;;;;;;;;;;5111054;28;20046;-74
2021/10/13 14:30:09;;;;;;;19.98;11.15;;;;;;;;;;5111685;27;20416;-74
2021/10/13 14:32:35;;;;;;;24.10;14.85;;;;;;;;;;5111021;28;20020;-77
2021/10/13 14:35:01;;;;;;;26.55;15.77;;;;;;;;;;5111213;28;20020;-75
2021/10/13 14:37:28;;;;;;;24.30;15.07;;;;;;;;;;5109858;28;20379;-75
2021/10/13 14:39:55;;;;;;;23.75;15.95;;;;;;;;;;5110667;28;20020;-74
2021/10/13 14:42:23;;;;;;;26.23;18.95;;;;;;;;;;5111221;28;20016;-74
2021/10/13 14:44:52;;;;;;;21.92;13.95;;;;;;;;;;5111105;28;20020;-74
2021/10/13 14:48:31;;;;;;;20.42;13.43;;;;;;;;;;5070729;28;20930;-76
2021/10/13 14:50:57;;;;;;;20.70;14.63;;;;;;;;;;5070686;28;20057;-76
2021/10/13 14:53:23;;;;;;;21.02;13.35;;;;;;;;;;5070200;28;20035;-76
2021/10/13 14:55:49;;;;;;;19.50;12.50;;;;;;;;;;5070531;28;20354;-76
2021/10/13 14:58:16;;;;;;;16.98;12.30;;;;;;;;;;5070614;28;20036;-76
2021/10/13 15:00:42;;;;;;;19.58;12.15;;;;;;;;;;5070075;28;20029;-76
2021/10/13 15:03:08;;;;;;;23.45;14.48;;;;;;;;;;5069363;28;20094;-77
2021/10/13 15:05:34;;;;;;;21.90;13.40;;;;;;;;;;5070330;28;20024;-77
2021/10/13 15:10:06;;;;;;;17.88;12.32;;;;;;;;;;5111460;27;20406;-77
2021/10/13 15:12:59;;;;;;;24.00;15.00;;;;;;;;;;5111512;27;20405;-76
2021/10/13 15:15:26;;;;;;;24.85;16.70;;;;;;;;;;5110847;28;20472;-76
2021/10/13 15:17:52;;;;;;;20.23;13.75;;;;;;;;;;5111144;28;20133;-76
2021/10/13 15:22:07;;;;;;;16.73;11.88;;;;;;;;;;5110821;27;20927;-74
2021/10/13 15:28:52;;;;;;;23.73;12.77;;;;;;;;;;5110994;27;20976;-75
2021/10/13 15:31:18;;;;;;;25.23;14.85;;;;;;;;;;5111275;28;20055;-76
2021/10/13 15:33:44;;;;;;;21.52;13.07;;;;;;;;;;5111105;28;20055;-75
2021/10/13 15:36:11;;;;;;;24.20;15.02;;;;;;;;;;5110883;28;20031;-75
2021/10/13 15:38:38;;;;;;;22.58;15.43;;;;;;;;;;5110945;28;20506;-75
2021/10/13 15:44:30;;;;;;;25.67;16.27;;;;;;;;;;5071428;28;20419;-75
2021/10/13 15:46:56;;;;;;;23.42;16.48;;;;;;;;;;5070816;28;20438;-77
2021/10/13 15:49:22;;;;;;;20.05;13.60;;;;;;;;;;5070477;28;20096;-75
2021/10/13 15:53:34;;;;;;;28.83;15.13;;;;;;;;;;5071227;28;20474;-75
2021/10/13 15:56:01;;;;;;;20.60;13.68;;;;;;;;;;5070651;28;20108;-75
2021/10/13 15:58:42;;;;;;;22.45;12.65;;;;;;;;;;5111476;27;20561;-77
2021/10/13 16:01:08;;;;;;;22.95;15.18;;;;;;;;;;5110001;28;20056;-75
2021/10/13 16:03:34;;;;;;;21.75;14.27;;;;;;;;;;5111057;28;20019;-75
2021/10/13 16:06:07;;;;;;;25.00;13.55;;;;;;;;;;5111177;28;20023;-75
2021/10/13 16:12:51;;;;;;;21.38;13.57;;;;;;;;;;5111592;27;20393;-77
2021/10/13 16:15:18;;;;;;;20.17;14.75;;;;;;;;;;5110944;28;20107;-75
2021/10/13 16:17:44;;;;;;;21.23;15.32;;;;;;;;;;5110848;28;20024;-75
2021/10/13 16:20:11;;;;;;;19.48;12.60;;;;;;;;;;5110347;28;20364;-75
2021/10/13 16:22:38;;;;;;;20.52;14.05;;;;;;;;;;5109955;28;20020;-74
2021/10/13 16:25:05;;;;;;;25.42;14.32;;;;;;;;;;5110750;28;20502;-75
2021/10/13 16:27:32;;;;;;;22.58;13.68;;;;;;;;;;5111441;28;20506;-76
2021/10/13 16:29:58;;;;;;;19.65;12.32;;;;;;;;;;5111068;28;20072;-75
2021/10/13 16:32:24;;;;;;;30.48;18.10;;;;;;;;;;5110484;28;20024;-75